createdAt,value
2022-08-05T00:02:28.628Z,25.59
2022-08-05T00:06:33.255Z,25.55
2022-08-05T00:10:38.005Z,25.66
2022-08-05T00:14:40.346Z,25.72
2022-08-05T00:18:48.190Z,25.65
2022-08-05T00:27:04.562Z,25.48
2022-08-05T00:31:13.089Z,25.41
2022-08-05T00:35:15.607Z,25.20
2022-08-05T00:39:22.399Z,24.95
2022-08-05T00:43:28.933Z,24.76
2022-08-05T00:47:56.728Z,24.65
2022-08-05T00:52:01.086Z,24.61
2022-08-05T00:56:03.650Z,24.56
2022-08-05T01:00:07.174Z,24.36
2022-08-05T01:04:14.040Z,24.14
2022-08-05T01:08:42.156Z,23.95
2022-08-05T01:12:42.268Z,23.19
2022-08-05T01:17:29.603Z,22.69
2022-08-05T01:22:07.017Z,22.86
2022-08-05T01:26:12.874Z,22.85
2022-08-05T01:30:18.920Z,22.91
2022-08-05T01:34:45.650Z,23.05
2022-08-05T01:38:49.930Z,23.20
2022-08-05T01:42:54.101Z,23.23
2022-08-05T01:46:58.330Z,23.32
2022-08-05T01:51:12.365Z,23.30
2022-08-05T01:55:17.974Z,23.08
2022-08-05T01:59:23.510Z,23.04
2022-08-05T02:03:33.944Z,23.02
2022-08-05T02:07:36.590Z,23.01
2022-08-05T02:11:52.229Z,23.11
2022-08-05T02:16:18.904Z,22.66
2022-08-05T02:20:27.903Z,22.28
2022-08-05T02:24:38.892Z,22.15
2022-08-05T02:28:46.026Z,22.22
2022-08-05T02:32:52.547Z,22.32
2022-08-05T02:36:58.511Z,22.30
2022-08-05T02:41:14.459Z,22.21
2022-08-05T02:45:18.433Z,22.30
2022-08-05T02:49:21.968Z,22.46
2022-08-05T02:53:24.736Z,22.57
2022-08-05T02:58:11.604Z,22.70
2022-08-05T03:01:51.979Z,22.69
2022-08-05T03:06:55.041Z,22.69
2022-08-05T03:10:22.095Z,22.71
2022-08-05T03:14:27.027Z,22.72
2022-08-05T03:18:30.147Z,22.67
2022-08-05T03:22:33.460Z,22.59
2022-08-05T03:26:37.371Z,22.44
2022-08-05T03:30:41.203Z,22.45
2022-08-05T03:34:51.085Z,22.46
2022-08-05T03:38:53.924Z,22.43
2022-08-05T03:42:56.028Z,22.33
2022-08-05T03:46:58.056Z,22.28
2022-08-05T03:52:35.256Z,22.33
2022-08-05T03:56:05.391Z,22.53
2022-08-05T03:59:58.370Z,22.65
2022-08-05T04:04:09.487Z,22.61
2022-08-05T04:08:29.750Z,22.64
2022-08-05T04:16:37.847Z,22.63
2022-08-05T04:20:41.271Z,22.66
2022-08-05T04:24:52.564Z,22.67
2022-08-05T04:28:55.081Z,22.59
2022-08-05T04:32:57.226Z,22.51
2022-08-05T04:36:59.472Z,22.49
2022-08-05T04:41:03.537Z,22.41
2022-08-05T04:45:07.385Z,22.28
2022-08-05T04:49:14.641Z,22.21
2022-08-05T04:53:18.477Z,22.39
2022-08-05T04:57:20.509Z,22.62
2022-08-05T05:01:33.688Z,22.64
2022-08-05T05:06:40.039Z,22.45
2022-08-05T05:10:07.049Z,22.37
2022-08-05T05:14:09.095Z,22.50
2022-08-05T05:18:31.315Z,22.86
2022-08-05T05:22:40.962Z,23.18
2022-08-05T05:26:43.111Z,24.68
2022-08-05T05:30:49.673Z,25.29
2022-08-05T05:34:52.472Z,24.54
2022-08-05T05:38:54.641Z,23.99
2022-08-05T05:42:57.437Z,23.68
2022-08-05T05:47:04.425Z,23.43
2022-08-05T05:51:15.061Z,23.39
2022-08-05T05:55:18.648Z,23.52
2022-08-05T05:59:20.808Z,23.52
2022-08-05T06:03:39.709Z,23.32
2022-08-05T06:07:57.992Z,23.07
2022-08-05T06:12:04.585Z,22.70
2022-08-05T06:16:30.851Z,22.92
2022-08-05T06:20:28.888Z,23.09
2022-08-05T06:24:31.683Z,23.20
2022-08-05T06:28:33.687Z,23.33
2022-08-05T06:32:36.137Z,23.31
2022-08-05T06:36:57.136Z,23.24
2022-08-05T06:41:00.712Z,23.21
2022-08-05T06:45:05.583Z,23.33
2022-08-05T06:49:10.795Z,23.41
2022-08-05T06:53:22.541Z,23.68
2022-08-05T06:57:57.427Z,23.97
2022-08-05T07:01:53.026Z,25.11
2022-08-05T07:05:55.303Z,25.59
2022-08-05T07:09:59.066Z,27.83
2022-08-05T07:14:29.337Z,28.11
2022-08-05T07:18:32.860Z,27.50
2022-08-05T07:22:35.584Z,27.15
2022-08-05T07:26:37.870Z,26.77
2022-08-05T07:30:41.311Z,26.58
2022-08-05T07:34:45.221Z,26.47
2022-08-05T07:38:47.967Z,26.73
2022-08-05T07:42:51.151Z,27.04
2022-08-05T07:46:53.438Z,27.00
2022-08-05T07:50:55.957Z,27.13
2022-08-05T07:55:02.182Z,27.28
2022-08-05T07:59:17.685Z,27.42
2022-08-05T08:03:25.510Z,27.44
2022-08-05T08:07:59.141Z,27.38
2022-08-05T08:12:10.707Z,27.28
2022-08-05T08:16:34.490Z,27.23
2022-08-05T08:20:59.778Z,27.14
2022-08-05T08:25:16.056Z,27.17
2022-08-05T08:29:45.416Z,27.19
2022-08-05T08:33:40.589Z,27.14
2022-08-05T08:37:45.061Z,27.08
2022-08-05T08:41:52.344Z,27.07
2022-08-05T08:46:04.225Z,27.10
2022-08-05T08:50:29.829Z,27.30
2022-08-05T08:54:30.534Z,27.77
2022-08-05T08:58:43.506Z,28.07
2022-08-05T09:02:52.561Z,27.96
2022-08-05T09:06:54.608Z,28.00
2022-08-05T09:10:56.719Z,28.08
2022-08-05T09:15:05.808Z,28.35
2022-08-05T09:19:09.048Z,28.16
2022-08-05T09:23:18.714Z,27.75
2022-08-05T09:28:05.427Z,27.67
2022-08-05T09:32:51.332Z,27.66
2022-08-05T09:36:56.279Z,27.59
2022-08-05T09:41:06.376Z,27.57
2022-08-05T09:46:05.273Z,27.66
2022-08-05T09:49:54.858Z,27.77
2022-08-05T09:53:59.110Z,27.86
2022-08-05T09:58:10.297Z,27.89
2022-08-05T10:02:13.342Z,28.05
2022-08-05T10:06:19.514Z,28.12
2022-08-05T10:10:33.063Z,28.01
2022-08-05T10:14:35.084Z,28.07
2022-08-05T10:18:38.605Z,27.98
2022-08-05T10:22:50.843Z,27.99
2022-08-05T10:26:55.940Z,27.98
2022-08-05T10:32:49.351Z,27.95
2022-08-05T10:35:33.632Z,28.01
2022-08-05T10:40:03.420Z,27.70
2022-08-05T10:44:07.119Z,27.61
2022-08-05T10:48:31.780Z,27.90
2022-08-05T10:52:49.433Z,28.02
2022-08-05T10:56:55.944Z,28.25
2022-08-05T11:01:03.002Z,28.52
2022-08-05T11:05:10.557Z,28.73
2022-08-05T11:09:24.447Z,28.36
2022-08-05T11:13:54.987Z,27.95
2022-08-05T11:18:11.700Z,27.56
2022-08-05T11:22:53.876Z,27.35
2022-08-05T11:27:29.129Z,27.39
2022-08-05T11:32:24.412Z,27.30
2022-08-05T11:36:42.841Z,26.93
2022-08-05T11:41:14.019Z,26.67
2022-08-05T11:46:27.487Z,26.72
2022-08-05T11:49:49.781Z,27.14
2022-08-05T11:53:54.947Z,27.35
2022-08-05T11:58:09.556Z,27.75
2022-08-05T12:02:24.129Z,27.82
2022-08-05T12:06:35.604Z,27.80
2022-08-05T12:10:44.949Z,27.28
2022-08-05T12:14:48.782Z,26.94
2022-08-05T12:18:52.984Z,26.68
2022-08-05T12:23:09.165Z,26.68
2022-08-05T12:27:25.173Z,26.70
2022-08-05T12:31:33.539Z,27.01
2022-08-05T12:35:47.248Z,27.18
2022-08-05T12:39:51.968Z,27.27
2022-08-05T12:44:02.753Z,27.32
2022-08-05T12:48:27.630Z,27.70
2022-08-05T12:52:38.122Z,27.73
2022-08-05T12:56:48.369Z,27.85
2022-08-05T13:02:02.674Z,27.76
2022-08-05T13:05:15.273Z,28.05
2022-08-05T13:09:28.290Z,28.09
2022-08-05T13:14:06.834Z,27.48
2022-08-05T13:17:54.890Z,27.16
2022-08-05T13:22:01.519Z,27.31
2022-08-05T13:26:05.734Z,27.44
2022-08-05T13:30:32.477Z,27.46
2022-08-05T13:34:36.258Z,27.72
2022-08-05T13:38:43.322Z,27.42
2022-08-05T13:42:45.822Z,26.95
2022-08-05T13:47:08.838Z,26.96
2022-08-05T13:51:13.420Z,26.87
2022-08-05T13:55:41.868Z,26.77
2022-08-05T13:59:57.595Z,26.52
2022-08-05T14:04:20.138Z,26.59
2022-08-05T14:08:27.880Z,26.77
2022-08-05T14:12:34.574Z,27.01
2022-08-05T14:16:36.607Z,26.95
2022-08-05T14:20:47.351Z,26.88
2022-08-05T14:24:50.289Z,26.68
2022-08-05T14:28:52.581Z,26.50
2022-08-05T14:32:54.714Z,26.16
2022-08-05T14:36:58.899Z,26.04
2022-08-05T14:41:05.776Z,26.12
2022-08-05T14:45:10.006Z,26.15
2022-08-05T14:49:12.022Z,25.96
2022-08-05T14:53:14.325Z,25.78
2022-08-05T14:57:16.329Z,25.62
2022-08-05T15:01:22.768Z,25.36
2022-08-05T15:06:07.838Z,24.85
2022-08-05T15:10:04.298Z,24.71
2022-08-05T15:14:11.657Z,24.83
2022-08-05T15:18:35.277Z,24.59
2022-08-05T15:22:39.230Z,24.34
2022-08-05T15:26:41.268Z,24.30
2022-08-05T15:30:46.442Z,24.60
2022-08-05T15:34:48.705Z,24.81
2022-08-05T15:40:42.629Z,25.03
2022-08-05T15:43:20.635Z,25.02
2022-08-05T15:47:23.670Z,24.82
2022-08-05T15:52:10.274Z,24.56
2022-08-05T15:56:03.704Z,24.51
2022-08-05T16:00:08.148Z,24.34
2022-08-05T16:04:10.285Z,24.25
2022-08-05T16:08:16.021Z,24.17
2022-08-05T16:12:21.633Z,23.82
2022-08-05T16:16:25.460Z,23.69
2022-08-05T16:20:27.983Z,23.84
2022-08-05T16:24:41.567Z,23.84
2022-08-05T16:28:53.150Z,23.80
2022-08-05T16:32:57.752Z,23.80
2022-08-05T16:36:59.850Z,23.67
2022-08-05T16:41:02.486Z,23.41
2022-08-05T16:46:05.267Z,23.36
2022-08-05T16:49:46.670Z,23.48
2022-08-05T16:54:03.914Z,23.60
2022-08-05T16:58:08.807Z,23.51
2022-08-05T17:02:11.418Z,23.39
2022-08-05T17:06:16.551Z,23.45
2022-08-05T17:10:18.819Z,23.46
2022-08-05T17:14:34.078Z,23.51
2022-08-05T17:18:36.839Z,23.41
2022-08-05T17:22:41.074Z,23.32
2022-08-05T17:26:43.112Z,23.19
2022-08-05T17:30:50.780Z,23.14
2022-08-05T17:34:54.457Z,23.08
2022-08-05T17:39:00.370Z,23.04
2022-08-05T17:43:03.532Z,23.02
2022-08-05T17:47:09.900Z,22.95
2022-08-05T17:51:13.831Z,22.99
2022-08-05T17:55:34.371Z,23.05
2022-08-05T17:59:40.649Z,23.03
2022-08-05T18:03:58.575Z,22.81
2022-08-05T18:08:03.134Z,22.75
2022-08-05T18:12:05.721Z,22.70
2022-08-05T18:16:09.511Z,22.60
2022-08-05T18:20:16.055Z,22.50
2022-08-05T18:24:18.136Z,22.39
2022-08-05T18:28:22.050Z,22.33
2022-08-05T18:32:30.699Z,22.20
2022-08-05T18:36:35.518Z,21.98
2022-08-05T18:41:53.616Z,21.83
2022-08-05T18:45:00.148Z,21.60
2022-08-05T18:49:20.884Z,21.35
2022-08-05T18:53:26.292Z,21.06
2022-08-05T18:57:28.395Z,20.84
2022-08-05T19:01:48.028Z,20.63
2022-08-05T19:06:12.226Z,20.49
2022-08-05T19:10:28.172Z,20.46
2022-08-05T19:14:53.464Z,20.38
2022-08-05T19:18:53.476Z,20.16
2022-08-05T19:22:58.591Z,20.17
2022-08-05T19:27:00.716Z,20.15
2022-08-05T19:31:06.321Z,20.16
2022-08-05T19:35:08.889Z,20.05
2022-08-05T19:39:10.940Z,19.94
2022-08-05T19:44:04.634Z,19.94
2022-08-05T19:47:37.571Z,19.94
2022-08-05T19:52:05.949Z,19.95
2022-08-05T19:56:14.497Z,19.98
2022-08-05T20:00:25.189Z,19.96
2022-08-05T20:04:28.816Z,19.98
2022-08-05T20:08:31.294Z,19.97
2022-08-05T20:12:34.410Z,19.93
2022-08-05T20:16:36.448Z,19.87
2022-08-05T20:20:43.431Z,19.85
2022-08-05T20:24:45.436Z,19.92
2022-08-05T20:28:50.850Z,19.99
2022-08-05T20:32:53.771Z,19.93
2022-08-05T20:36:55.852Z,19.80
2022-08-05T20:40:58.248Z,19.73
2022-08-05T20:45:00.697Z,19.68
2022-08-05T20:49:06.274Z,19.57
2022-08-05T20:53:15.759Z,19.49
2022-08-05T20:57:42.213Z,19.42
2022-08-05T21:01:40.709Z,19.28
2022-08-05T21:05:53.350Z,19.23
2022-08-05T21:09:57.157Z,19.17
2022-08-05T21:14:00.332Z,19.06
2022-08-05T21:18:03.728Z,18.99
2022-08-05T21:22:06.048Z,18.84
2022-08-05T21:26:12.300Z,18.75
2022-08-05T21:30:17.603Z,18.77
2022-08-05T21:34:20.403Z,18.73
2022-08-05T21:38:24.133Z,18.63
2022-08-05T21:42:40.900Z,18.49
2022-08-05T21:46:46.390Z,18.43
2022-08-05T21:50:54.170Z,18.37
2022-08-05T21:54:57.802Z,18.28
2022-08-05T21:59:22.520Z,18.18
2022-08-05T22:03:52.630Z,18.10
2022-08-05T22:07:58.870Z,18.02
2022-08-05T22:12:09.685Z,17.95
2022-08-05T22:16:39.579Z,17.90
2022-08-05T22:20:34.974Z,17.82
2022-08-05T22:24:59.721Z,17.77
2022-08-05T22:29:02.097Z,17.82
2022-08-05T22:33:15.242Z,17.91
2022-08-05T22:37:17.952Z,17.90
2022-08-05T22:42:04.807Z,17.85
2022-08-05T22:45:43.242Z,17.85
2022-08-05T22:50:21.509Z,17.80
2022-08-05T22:54:11.543Z,17.72
2022-08-05T22:58:14.671Z,17.60
2022-08-05T23:02:18.376Z,17.50
2022-08-05T23:06:30.769Z,17.44
2022-08-05T23:10:32.781Z,17.39
2022-08-05T23:14:35.229Z,17.35
2022-08-05T23:18:38.515Z,17.21
2022-08-05T23:22:40.683Z,17.03
2022-08-05T23:26:42.746Z,16.98
2022-08-05T23:30:53.623Z,16.96
2022-08-05T23:34:56.499Z,16.90
2022-08-05T23:38:58.622Z,16.83
2022-08-05T23:43:00.718Z,16.63
2022-08-05T23:47:15.139Z,16.28
2022-08-05T23:51:17.778Z,16.02
2022-08-05T23:55:20.549Z,15.90
2022-08-05T23:59:27.667Z,15.86
